createdAt,value
2019-03-23T13:48:20.517Z,64.87
2019-03-23T13:50:48.599Z,63.51
2019-03-23T13:53:16.655Z,64.32
2019-03-23T13:55:44.708Z,64.11
2019-03-23T13:58:12.754Z,62.77
2019-03-23T14:00:41.691Z,62.94
2019-03-23T14:03:09.687Z,63.35
2019-03-23T14:05:37.757Z,63.07
2019-03-23T14:08:05.783Z,62.77
2019-03-23T14:10:33.804Z,63.31
2019-03-23T14:13:01.874Z,63.02
2019-03-23T14:15:29.985Z,62.89
2019-03-23T14:17:58.015Z,63.54
2019-03-23T14:20:26.061Z,62.58
2019-03-23T14:23:02.289Z,61.90
2019-03-23T14:25:23.814Z,62.37
2019-03-23T14:27:51.885Z,61.99
2019-03-23T14:30:19.967Z,63.52
2019-03-23T14:32:48.001Z,63.03
2019-03-23T14:35:16.036Z,63.38
2019-03-23T14:37:44.053Z,63.68
2019-03-23T14:40:12.072Z,63.51
2019-03-23T14:42:40.248Z,62.99
2019-03-23T14:45:08.302Z,64.14
2019-03-23T14:47:36.635Z,63.51
2019-03-23T14:50:04.702Z,63.84
2019-03-23T14:52:32.729Z,63.68
2019-03-23T14:55:00.817Z,64.28
2019-03-23T14:57:28.849Z,64.73
2019-03-23T14:59:56.888Z,62.99
2019-03-23T15:02:24.974Z,63.45
2019-03-23T15:04:53.123Z,63.39
2019-03-23T15:07:21.264Z,63.93
2019-03-23T15:09:49.410Z,63.62
2019-03-23T15:12:17.543Z,62.36
2019-03-23T15:14:45.573Z,62.52
2019-03-23T15:17:13.687Z,62.56
2019-03-23T15:19:41.770Z,63.12
2019-03-23T15:22:09.791Z,62.02
2019-03-23T15:24:37.820Z,62.84
2019-03-23T15:27:05.857Z,63.01
2019-03-23T15:29:34.050Z,63.32
2019-03-23T15:32:02.244Z,62.80
2019-03-23T15:34:30.416Z,62.55
2019-03-23T15:36:58.452Z,62.43
2019-03-23T15:39:26.487Z,61.65
2019-03-23T15:41:54.547Z,62.38
2019-03-23T15:44:22.578Z,62.80
2019-03-23T15:46:50.675Z,62.05
2019-03-23T15:49:19.151Z,61.07
2019-03-23T15:51:47.194Z,61.88
2019-03-23T15:54:15.384Z,61.43
2019-03-23T15:56:43.443Z,60.43
2019-03-23T15:59:11.567Z,61.73
2019-03-23T16:01:39.614Z,62.30
2019-03-23T16:04:07.683Z,62.87
2019-03-23T16:06:35.707Z,62.10
2019-03-23T16:09:04.707Z,61.55
2019-03-23T16:11:32.887Z,61.57
2019-03-23T16:14:00.914Z,60.29
2019-03-23T16:16:29.014Z,60.69
2019-03-23T16:18:57.119Z,61.01
2019-03-23T16:21:25.183Z,59.33
2019-03-23T16:23:53.329Z,60.10
2019-03-23T16:26:21.402Z,60.56
2019-03-23T16:28:49.411Z,60.22
2019-03-23T16:31:17.672Z,60.19
2019-03-23T16:33:45.688Z,59.96
2019-03-23T16:36:13.773Z,59.44
2019-03-23T16:38:41.826Z,60.31
2019-03-23T16:41:09.871Z,59.14
2019-03-23T16:43:38.168Z,58.31
2019-03-23T16:46:06.239Z,58.14
2019-03-23T16:48:34.241Z,57.44
2019-03-23T16:51:02.266Z,57.69
2019-03-23T16:53:30.462Z,57.36
2019-03-23T16:55:58.519Z,56.92
2019-03-23T16:58:26.545Z,56.52
2019-03-23T17:00:54.640Z,56.15
2019-03-23T17:03:22.665Z,57.61
2019-03-23T17:05:50.699Z,57.24
2019-03-23T17:08:18.780Z,57.06
2019-03-23T17:10:49.778Z,57.39
2019-03-23T17:13:17.913Z,57.08
2019-03-23T17:15:46.080Z,58.62
2019-03-23T17:18:14.118Z,58.24
2019-03-23T17:20:42.197Z,58.95
2019-03-23T17:23:10.352Z,58.69
2019-03-23T17:25:38.629Z,58.07
2019-03-23T17:28:06.835Z,57.63
2019-03-23T17:30:34.880Z,57.99
2019-03-23T17:33:05.961Z,57.21
2019-03-23T17:35:33.983Z,57.11
2019-03-23T17:38:02.063Z,57.69
2019-03-23T17:40:30.107Z,57.41
2019-03-23T17:43:05.631Z,57.41
2019-03-23T17:45:28.029Z,58.38
2019-03-23T17:47:56.326Z,59.88
2019-03-23T17:50:24.330Z,59.93
2019-03-23T17:52:52.401Z,60.36
2019-03-23T17:55:20.508Z,60.21
2019-03-23T17:57:48.580Z,59.78
2019-03-23T18:00:16.708Z,59.65
2019-03-23T18:02:44.883Z,59.40
2019-03-23T18:05:13.201Z,59.19
2019-03-23T18:07:41.247Z,59.08
2019-03-23T18:10:09.280Z,59.20
2019-03-23T18:12:37.350Z,59.17
2019-03-23T18:15:05.509Z,59.25
2019-03-23T18:17:33.532Z,59.21
2019-03-23T18:20:01.575Z,59.39
2019-03-23T18:22:29.649Z,59.77
2019-03-23T18:24:57.663Z,59.78
2019-03-23T18:27:25.686Z,59.71
2019-03-23T18:29:53.766Z,59.92
2019-03-23T18:32:21.889Z,60.04
2019-03-23T18:34:49.914Z,59.92
2019-03-23T18:37:18.044Z,59.97
2019-03-23T18:39:46.060Z,60.11
2019-03-23T18:42:14.219Z,59.90
2019-03-23T18:44:42.280Z,59.69
2019-03-23T18:47:10.333Z,59.69
2019-03-23T18:49:38.352Z,59.91
2019-03-23T18:52:06.393Z,60.04
2019-03-23T18:54:34.514Z,60.10
2019-03-23T18:57:02.540Z,60.21
2019-03-23T18:59:30.656Z,60.01
2019-03-23T19:01:58.703Z,60.01
2019-03-23T19:04:26.850Z,60.13
2019-03-23T19:06:54.958Z,59.94
2019-03-23T19:09:22.989Z,59.95
2019-03-23T19:11:51.008Z,60.10
2019-03-23T19:14:19.195Z,60.20
2019-03-23T19:16:47.261Z,60.16
2019-03-23T19:19:15.301Z,60.08
2019-03-23T19:21:43.424Z,59.98
2019-03-23T19:24:11.518Z,60.01
2019-03-23T19:26:39.620Z,60.44
2019-03-23T19:29:07.977Z,60.48
2019-03-23T19:31:36.137Z,60.18
2019-03-23T19:34:04.329Z,60.34
2019-03-23T19:36:32.576Z,60.38
2019-03-23T19:39:00.613Z,60.38
2019-03-23T19:41:28.658Z,60.38
2019-03-23T19:43:56.711Z,60.17
2019-03-23T19:46:24.818Z,60.42
2019-03-23T19:48:52.885Z,60.84
2019-03-23T19:51:22.496Z,59.63
2019-03-23T19:53:50.545Z,59.16
2019-03-23T19:56:18.664Z,59.08
2019-03-23T19:58:46.720Z,58.91
2019-03-23T20:01:14.811Z,61.48
2019-03-23T20:03:42.865Z,61.15
2019-03-23T20:06:10.929Z,61.14
2019-03-23T20:08:38.966Z,61.52
2019-03-23T20:11:07.266Z,61.61
2019-03-23T20:13:35.388Z,61.92
2019-03-23T20:16:03.426Z,61.70
2019-03-23T20:18:31.443Z,61.81
2019-03-23T20:21:00.505Z,61.87
2019-03-23T20:23:28.662Z,62.37
2019-03-23T20:25:58.390Z,61.62
2019-03-23T20:28:26.503Z,61.80
2019-03-23T20:30:54.596Z,61.78
2019-03-23T20:33:22.651Z,61.52
2019-03-23T20:35:50.788Z,61.44
2019-03-23T20:38:18.883Z,61.27
2019-03-23T20:40:46.908Z,61.37
2019-03-23T20:43:15.066Z,61.34
2019-03-23T20:45:43.142Z,61.54
2019-03-23T20:48:12.659Z,61.21
2019-03-23T20:50:40.784Z,61.20
2019-03-23T20:53:09.019Z,61.20
2019-03-23T20:55:37.191Z,61.01
2019-03-23T20:58:05.380Z,61.49
2019-03-23T21:00:33.410Z,60.75
2019-03-23T21:03:01.494Z,61.58
2019-03-23T21:05:34.083Z,62.16
2019-03-23T21:07:59.363Z,62.60
2019-03-23T21:10:27.460Z,62.49
2019-03-23T21:12:55.493Z,62.53
2019-03-23T21:15:23.540Z,62.69
2019-03-23T21:17:51.754Z,62.57
2019-03-23T21:20:20.069Z,62.87
2019-03-23T21:22:48.266Z,62.81
2019-03-23T21:25:16.305Z,62.41
2019-03-23T21:27:44.480Z,62.16
2019-03-23T21:30:12.848Z,62.10
2019-03-23T21:32:41.264Z,61.91
2019-03-23T21:35:09.490Z,61.92
2019-03-23T21:37:37.641Z,61.69
2019-03-23T21:40:08.847Z,61.43
2019-03-23T21:42:46.583Z,61.44
2019-03-23T21:45:14.688Z,61.18
2019-03-23T21:47:42.716Z,61.23
2019-03-23T21:50:10.742Z,61.02
2019-03-23T21:52:38.772Z,60.89
2019-03-23T21:55:06.829Z,60.80
2019-03-23T21:57:34.848Z,60.94
2019-03-23T22:00:02.932Z,60.72
2019-03-23T22:02:30.989Z,60.52
2019-03-23T22:04:59.035Z,60.88
2019-03-23T22:07:27.096Z,61.10
2019-03-23T22:09:57.659Z,61.26
2019-03-23T22:12:25.743Z,61.31
2019-03-23T22:14:53.799Z,61.31
2019-03-23T22:17:21.841Z,61.52
2019-03-23T22:19:49.852Z,61.70
2019-03-23T22:22:17.923Z,61.42
2019-03-23T22:24:46.020Z,61.52
2019-03-23T22:27:14.702Z,61.66
2019-03-23T22:29:42.831Z,61.55
2019-03-23T22:32:10.993Z,61.94
2019-03-23T22:34:39.033Z,61.53
2019-03-23T22:37:07.184Z,61.49
2019-03-23T22:39:35.214Z,61.33
2019-03-23T22:42:03.252Z,60.98
2019-03-23T22:44:31.340Z,60.76
2019-03-23T22:46:59.361Z,60.65
2019-03-23T22:49:27.382Z,61.47
2019-03-23T22:51:55.444Z,61.88
2019-03-23T22:54:23.464Z,62.12
2019-03-23T22:56:51.488Z,62.23
2019-03-23T22:59:19.566Z,61.84
2019-03-23T23:01:47.668Z,61.97
2019-03-23T23:04:16.086Z,61.60
2019-03-23T23:06:46.926Z,61.36
2019-03-23T23:09:14.994Z,61.46
2019-03-23T23:11:43.029Z,61.56
2019-03-23T23:14:11.114Z,61.31
2019-03-23T23:16:39.152Z,61.23
2019-03-23T23:19:07.219Z,61.34
2019-03-23T23:21:35.299Z,61.28
2019-03-23T23:24:03.324Z,61.26
2019-03-23T23:26:31.355Z,60.68
2019-03-23T23:28:59.414Z,61.09
2019-03-23T23:31:27.414Z,60.98
2019-03-23T23:33:55.435Z,60.80
2019-03-23T23:36:23.518Z,61.35
2019-03-23T23:38:52.559Z,61.57
2019-03-23T23:41:20.688Z,61.58
2019-03-23T23:43:48.732Z,61.25
2019-03-23T23:46:16.948Z,61.22
2019-03-23T23:48:51.172Z,61.36
2019-03-23T23:51:14.911Z,61.46
2019-03-23T23:53:42.928Z,61.19
2019-03-23T23:56:10.950Z,61.15
2019-03-23T23:58:39.027Z,61.15
